Capitol Logistics 790


YSSY
Kingsford Smith International Airport
Sydney, AU
WSSS
Changi International Airport
Singapore, SG

Route Details

Aircraft Information
Primary: Boeing 747-400BCF
Backup: Boeing 777-200LRF
Route Data
Distance: 3402nm
Sched. Duration: 7h 29m
Avg. Duration: 7h 45m (+15m)
Times Flown: 1
Recm'd Route: KADOM A576 PKS/N0482F360 A576 AS A587 ONOXA/N0482F380 G326 BLI M635 SURGA
Planned Altitude: 34,000ft
Origin Wx: YSSY 290400Z 17013KT 9999 FEW016 19/14 Q1010 NOSIG
Dest. Wx: WSSS 290400Z 21006KT 150V240 9999 FEW018 FEW020CB BKN300 31/24 Q1011 NOSIG
Notes:

Financial History
Total Freight: 128,386lbs
Average Load: 128,386lbs/flt
Fuel Used: 141,031lbs
Avg. Fuel Used: 141,031lbs/flt
Fuel Expense: $112,825
Avg. Fuel Expense: $112,825
Avg. Fuel Cost: $0.80/lbs
Total Gross Income: $537,937
Pilot Pay: $229
Total Expenses: $58,149
Total Revenue: $365,111
Average Revenue: $537,937.31